In Rescue
 
Open Full Screen Window  High Contrast Mode
Wind Gusting 21 knots
11
May 20, 2019 2:22 PM EDT
Weather Information
Wind Direction
  280 °
Wind Speed
  11 kt (13 mph)
Wind Gust
  21 kt (24 mph)
Altimeter
30.00 in
Visibility
10 SM
Temperature
18° C
64° F
Dewpoint
09° C
48° F
Humidity
56%
1hr Rain Fall
00.00 in.
24hr Rain Fall
00.07 in.
Sky Condition
Overcast @ 3,900 ft
VFR

METAR KDLZ 201822Z AUTO 28011G21KT 10SM OVC039 18/09 A3000 RMK AO2

FAA Disclaimer: The data displayed is for advisory purposes only and is not to be used for flight planning or operations.